createdAt,value
2023-02-21T00:01:56.954Z,8.73
2023-02-21T00:04:50.061Z,8.72
2023-02-21T00:07:43.124Z,8.72
2023-02-21T00:10:37.681Z,8.70
2023-02-21T00:13:27.693Z,8.70
2023-02-21T00:16:18.446Z,8.68
2023-02-21T00:19:08.631Z,8.67
2023-02-21T00:21:58.848Z,8.64
2023-02-21T00:24:49.215Z,8.61
2023-02-21T00:27:39.371Z,8.56
2023-02-21T00:30:33.863Z,8.52
2023-02-21T00:33:31.703Z,8.47
2023-02-21T00:36:25.032Z,8.44
2023-02-21T00:39:16.650Z,8.41
2023-02-21T00:42:06.678Z,8.38
2023-02-21T00:44:57.108Z,8.35
2023-02-21T00:47:47.320Z,8.32
2023-02-21T00:50:37.615Z,8.31
2023-02-21T00:53:28.959Z,8.32
2023-02-21T00:56:21.938Z,8.33
2023-02-21T00:59:15.204Z,8.33
2023-02-21T01:02:05.943Z,8.35
2023-02-21T01:04:56.453Z,8.35
2023-02-21T01:07:44.478Z,8.35
2023-02-21T01:10:38.160Z,8.34
2023-02-21T01:13:29.717Z,8.31
2023-02-21T01:16:19.265Z,8.27
2023-02-21T01:19:09.736Z,8.25
2023-02-21T01:21:59.701Z,8.23
2023-02-21T01:24:49.858Z,8.20
2023-02-21T01:27:42.869Z,8.17
2023-02-21T01:30:33.755Z,8.12
2023-02-21T01:33:25.565Z,8.08
2023-02-21T01:36:17.302Z,8.07
2023-02-21T01:39:13.721Z,8.04
2023-02-21T01:42:07.104Z,8.05
2023-02-21T01:44:59.389Z,8.06
2023-02-21T01:47:49.658Z,8.05
2023-02-21T01:50:47.286Z,8.06
2023-02-21T01:53:40.609Z,8.06
2023-02-21T01:56:34.618Z,8.05
2023-02-21T01:59:25.453Z,8.03
2023-02-21T02:02:21.319Z,7.99
2023-02-21T02:05:12.915Z,7.94
2023-02-21T02:08:03.823Z,7.90
2023-02-21T02:10:54.191Z,7.84
2023-02-21T02:13:49.018Z,7.80
2023-02-21T02:16:31.309Z,7.74
2023-02-21T02:19:43.709Z,7.71
2023-02-21T02:22:52.392Z,7.68
2023-02-21T02:25:42.312Z,7.65
2023-02-21T02:28:34.485Z,7.64
2023-02-21T02:31:34.766Z,7.63
2023-02-21T02:34:42.290Z,7.60
2023-02-21T02:37:23.604Z,7.60
2023-02-21T02:40:02.414Z,7.59
2023-02-21T02:42:48.728Z,7.60
2023-02-21T02:45:27.622Z,7.59
2023-02-21T02:48:04.785Z,7.57
2023-02-21T02:50:37.875Z,7.59
2023-02-21T02:53:10.516Z,7.58
2023-02-21T02:55:50.607Z,7.58
2023-02-21T02:58:25.566Z,7.58
2023-02-21T03:01:10.238Z,7.58
2023-02-21T03:04:07.167Z,7.58
2023-02-21T03:06:55.782Z,7.56
2023-02-21T03:09:35.690Z,7.55
2023-02-21T03:12:11.698Z,7.53
2023-02-21T03:14:51.977Z,7.51
2023-02-21T03:17:31.760Z,7.50
2023-02-21T03:20:06.553Z,7.50
2023-02-21T03:22:39.589Z,7.49
2023-02-21T03:25:13.027Z,7.50
2023-02-21T03:27:46.312Z,7.50
2023-02-21T03:30:29.728Z,7.50
2023-02-21T03:33:10.461Z,7.51
2023-02-21T03:35:46.420Z,7.52
2023-02-21T03:38:24.619Z,7.52
2023-02-21T03:40:59.901Z,7.53
2023-02-21T03:43:32.602Z,7.55
2023-02-21T03:46:06.684Z,7.57
2023-02-21T03:48:41.651Z,7.60
2023-02-21T03:51:22.182Z,7.62
2023-02-21T03:53:55.125Z,7.62
2023-02-21T03:56:41.502Z,7.65
2023-02-21T03:59:34.669Z,7.68
2023-02-21T04:02:07.791Z,7.69
2023-02-21T04:04:42.105Z,7.70
2023-02-21T04:07:19.385Z,7.71
2023-02-21T04:09:52.032Z,7.71
2023-02-21T04:12:30.771Z,7.72
2023-02-21T04:15:03.141Z,7.74
2023-02-21T04:17:35.650Z,7.74
2023-02-21T04:20:10.538Z,7.74
2023-02-21T04:23:02.862Z,7.77
2023-02-21T04:25:39.417Z,7.77
2023-02-21T04:28:18.605Z,7.79
2023-02-21T04:30:50.889Z,7.79
2023-02-21T04:33:23.424Z,7.79
2023-02-21T04:35:55.667Z,7.79
2023-02-21T04:38:31.204Z,7.77
2023-02-21T04:41:04.190Z,7.77
2023-02-21T04:43:36.368Z,7.76
2023-02-21T04:46:08.816Z,7.77
2023-02-21T04:48:41.029Z,7.77
2023-02-21T04:51:16.124Z,7.77
2023-02-21T04:53:50.225Z,7.77
2023-02-21T04:56:25.929Z,7.76
2023-02-21T04:58:59.025Z,7.76
2023-02-21T05:01:32.837Z,7.77
2023-02-21T05:04:05.615Z,7.76
2023-02-21T05:06:37.843Z,7.76
2023-02-21T05:09:12.623Z,7.75
2023-02-21T05:11:44.783Z,7.76
2023-02-21T05:14:18.323Z,7.76
2023-02-21T05:16:50.591Z,7.77
2023-02-21T05:19:27.582Z,7.77
2023-02-21T05:22:02.508Z,7.76
2023-02-21T05:24:35.288Z,7.78
2023-02-21T05:27:11.559Z,7.80
2023-02-21T05:29:43.875Z,7.81
2023-02-21T05:32:16.641Z,7.81
2023-02-21T05:34:49.189Z,7.81
2023-02-21T05:37:22.274Z,7.83
2023-02-21T05:40:01.953Z,7.85
2023-02-21T05:42:34.578Z,7.87
2023-02-21T05:45:07.594Z,7.89
2023-02-21T05:47:40.115Z,7.89
2023-02-21T05:50:12.901Z,7.92
2023-02-21T05:52:48.955Z,7.93
2023-02-21T05:55:21.208Z,7.93
2023-02-21T05:57:53.517Z,7.93
2023-02-21T06:00:28.296Z,7.95
2023-02-21T06:03:01.989Z,7.96
2023-02-21T06:05:36.889Z,7.98
2023-02-21T06:08:11.828Z,8.00
2023-02-21T06:10:45.253Z,8.01
2023-02-21T06:13:17.842Z,8.03
2023-02-21T06:15:50.453Z,8.05
2023-02-21T06:18:22.782Z,8.08
2023-02-21T06:20:54.978Z,8.11
2023-02-21T06:23:27.444Z,8.11
2023-02-21T06:25:59.697Z,8.11
2023-02-21T06:28:32.828Z,8.10
2023-02-21T06:31:06.604Z,8.08
2023-02-21T06:33:39.238Z,8.08
2023-02-21T06:36:15.054Z,8.10
2023-02-21T06:38:51.287Z,8.11
2023-02-21T06:41:26.326Z,8.10
2023-02-21T06:43:59.953Z,8.08
2023-02-21T06:46:33.236Z,8.07
2023-02-21T06:49:05.654Z,8.07
2023-02-21T06:51:39.404Z,8.08
2023-02-21T06:54:12.209Z,8.08
2023-02-21T06:56:44.734Z,8.09
2023-02-21T06:59:18.196Z,8.10
2023-02-21T07:01:50.536Z,8.13
2023-02-21T07:04:22.986Z,8.15
2023-02-21T07:06:55.410Z,8.17
2023-02-21T07:09:27.667Z,8.16
2023-02-21T07:11:59.870Z,8.14
2023-02-21T07:14:32.151Z,8.15
2023-02-21T07:17:04.370Z,8.16
2023-02-21T07:19:38.755Z,8.15
2023-02-21T07:22:11.012Z,8.17
2023-02-21T07:24:43.258Z,8.18
2023-02-21T07:27:15.738Z,8.18
2023-02-21T07:29:51.700Z,8.19
2023-02-21T07:34:56.390Z,8.25
2023-02-21T07:37:28.890Z,8.23
2023-02-21T07:40:02.040Z,8.20
2023-02-21T07:42:34.409Z,8.18
2023-02-21T07:45:07.408Z,8.16
2023-02-21T07:47:39.928Z,8.13
2023-02-21T07:50:13.416Z,8.11
2023-02-21T07:52:46.815Z,8.10
2023-02-21T07:55:21.839Z,8.12
2023-02-21T07:57:54.663Z,8.12
2023-02-21T08:00:27.651Z,8.11
2023-02-21T08:03:00.608Z,8.11
2023-02-21T08:05:33.723Z,8.14
2023-02-21T08:08:08.198Z,8.15
2023-02-21T08:10:40.737Z,8.19
2023-02-21T08:13:13.332Z,8.21
2023-02-21T08:15:45.888Z,8.23
2023-02-21T08:18:24.672Z,8.24
2023-02-21T08:20:58.009Z,8.24
2023-02-21T08:23:30.456Z,8.25
2023-02-21T08:26:03.866Z,8.26
2023-02-21T08:28:37.393Z,8.23
2023-02-21T08:31:10.076Z,8.21
2023-02-21T08:33:42.365Z,8.21
2023-02-21T08:36:15.049Z,8.24
2023-02-21T08:38:47.973Z,8.28
2023-02-21T08:41:20.362Z,8.31
2023-02-21T08:43:52.666Z,8.30
2023-02-21T08:46:24.980Z,8.31
2023-02-21T08:48:57.525Z,8.31
2023-02-21T08:51:31.278Z,8.32
2023-02-21T08:54:04.478Z,8.35
2023-02-21T08:56:37.312Z,8.35
2023-02-21T08:59:09.909Z,8.35
2023-02-21T09:01:42.173Z,8.46
2023-02-21T09:04:14.346Z,9.73
2023-02-21T09:06:46.585Z,11.17
2023-02-21T09:09:18.782Z,11.12
2023-02-21T09:11:51.303Z,10.64
2023-02-21T09:14:23.556Z,10.15
2023-02-21T09:16:55.784Z,9.83
2023-02-21T09:19:28.186Z,9.64
2023-02-21T09:22:01.825Z,9.49
2023-02-21T09:24:34.046Z,9.37
2023-02-21T09:27:07.330Z,9.28
2023-02-21T09:29:46.295Z,9.23
2023-02-21T09:32:18.919Z,9.22
2023-02-21T09:34:51.152Z,9.37
2023-02-21T09:37:23.331Z,9.73
2023-02-21T09:39:55.657Z,9.75
2023-02-21T09:42:32.739Z,9.64
2023-02-21T09:45:05.381Z,9.55
2023-02-21T09:47:40.281Z,9.60
2023-02-21T09:50:17.927Z,9.86
2023-02-21T09:52:50.780Z,10.66
2023-02-21T09:55:30.905Z,12.23
2023-02-21T09:58:03.880Z,14.30
2023-02-21T10:00:39.169Z,15.66
2023-02-21T10:03:35.238Z,14.83
2023-02-21T10:06:15.227Z,13.60
2023-02-21T10:08:55.085Z,12.83
2023-02-21T10:11:38.107Z,12.27
2023-02-21T10:14:21.675Z,12.09
2023-02-21T10:17:02.220Z,12.20
2023-02-21T10:19:40.392Z,11.98
2023-02-21T10:22:20.641Z,11.65
2023-02-21T10:24:54.171Z,11.41
2023-02-21T10:27:32.050Z,11.90
2023-02-21T10:30:10.454Z,13.22
2023-02-21T10:32:43.753Z,14.42
2023-02-21T10:35:15.963Z,14.25
2023-02-21T10:37:52.303Z,14.59
2023-02-21T10:40:34.570Z,15.28
2023-02-21T10:43:15.006Z,15.11
2023-02-21T10:45:52.045Z,14.54
2023-02-21T10:48:29.547Z,14.20
2023-02-21T10:51:11.238Z,14.95
2023-02-21T10:53:45.913Z,15.45
2023-02-21T10:56:28.314Z,16.12
2023-02-21T10:59:05.609Z,17.40
2023-02-21T11:01:44.102Z,19.30
2023-02-21T11:04:29.577Z,20.27
2023-02-21T11:07:06.539Z,19.53
2023-02-21T11:09:44.466Z,18.10
2023-02-21T11:12:26.068Z,16.85
2023-02-21T11:15:19.207Z,16.11
2023-02-21T11:18:14.269Z,15.08
2023-02-21T11:20:47.813Z,14.27
2023-02-21T11:23:28.800Z,13.58
2023-02-21T11:26:09.381Z,12.96
2023-02-21T11:28:44.592Z,12.40
2023-02-21T11:31:29.315Z,12.06
2023-02-21T11:34:04.387Z,11.66
2023-02-21T11:36:39.688Z,11.32
2023-02-21T11:39:19.002Z,11.12
2023-02-21T11:41:56.225Z,10.82
2023-02-21T11:44:31.616Z,10.57
2023-02-21T11:47:14.164Z,10.46
2023-02-21T11:49:54.675Z,10.52
2023-02-21T11:52:30.102Z,10.49
2023-02-21T11:55:02.701Z,10.52
2023-02-21T11:57:45.932Z,10.48
2023-02-21T12:00:28.418Z,10.35
2023-02-21T12:03:33.814Z,10.22
2023-02-21T12:06:13.990Z,10.19
2023-02-21T12:08:53.487Z,10.25
2023-02-21T12:11:37.533Z,10.25
2023-02-21T12:14:23.466Z,10.19
2023-02-21T12:17:09.631Z,10.25
2023-02-21T12:19:58.954Z,10.42
2023-02-21T12:22:46.364Z,10.86
2023-02-21T12:25:26.501Z,11.42
2023-02-21T12:28:07.580Z,11.95
2023-02-21T12:30:55.973Z,12.16
2023-02-21T12:33:43.303Z,12.31
2023-02-21T12:36:45.330Z,12.44
2023-02-21T12:39:31.789Z,12.49
2023-02-21T12:42:26.849Z,12.20
2023-02-21T12:45:08.930Z,12.18
2023-02-21T12:47:54.828Z,12.91
2023-02-21T12:50:33.040Z,14.32
2023-02-21T12:53:13.680Z,14.72
2023-02-21T12:55:53.551Z,14.34
2023-02-21T12:58:32.013Z,14.15
2023-02-21T13:01:10.755Z,14.57
2023-02-21T13:03:56.831Z,15.08
2023-02-21T13:06:33.958Z,15.54
2023-02-21T13:09:22.917Z,15.82
2023-02-21T13:12:03.181Z,15.64
2023-02-21T13:14:42.502Z,15.15
2023-02-21T13:17:17.209Z,14.83
2023-02-21T13:19:52.016Z,14.60
2023-02-21T13:23:16.248Z,14.19
2023-02-21T13:26:22.441Z,13.64
2023-02-21T13:28:57.327Z,13.31
2023-02-21T13:31:38.450Z,13.69
2023-02-21T13:34:12.733Z,14.69
2023-02-21T13:36:49.389Z,15.98
2023-02-21T13:39:31.923Z,16.77
2023-02-21T13:42:10.472Z,17.32
2023-02-21T13:44:46.502Z,17.86
2023-02-21T13:47:20.968Z,17.51
2023-02-21T13:49:57.686Z,17.07
2023-02-21T13:52:59.305Z,16.28
2023-02-21T13:55:33.063Z,15.21
2023-02-21T13:58:31.758Z,14.53
2023-02-21T14:01:34.867Z,14.01
2023-02-21T14:04:44.320Z,13.55
2023-02-21T14:07:16.723Z,13.47
2023-02-21T14:09:51.212Z,13.86
2023-02-21T14:12:28.150Z,14.24
2023-02-21T14:15:09.361Z,14.51
2023-02-21T14:17:43.816Z,14.54
2023-02-21T14:20:22.820Z,14.21
2023-02-21T14:22:59.273Z,13.75
2023-02-21T14:25:37.187Z,13.35
2023-02-21T14:28:42.463Z,12.93
2023-02-21T14:31:16.241Z,12.54
2023-02-21T14:33:48.813Z,12.26
2023-02-21T14:36:21.383Z,12.00
2023-02-21T14:38:56.042Z,11.76
2023-02-21T14:41:48.240Z,11.49
2023-02-21T14:44:29.457Z,11.28
2023-02-21T14:47:36.256Z,11.14
2023-02-21T14:50:32.410Z,10.96
2023-02-21T14:53:41.724Z,10.78
2023-02-21T14:56:46.809Z,10.64
2023-02-21T14:59:35.525Z,10.48
2023-02-21T15:02:19.035Z,10.29
2023-02-21T15:05:05.227Z,10.14
2023-02-21T15:07:45.939Z,10.06
2023-02-21T15:10:26.124Z,9.98
2023-02-21T15:13:02.304Z,9.89
2023-02-21T15:15:36.940Z,9.81
2023-02-21T15:18:11.186Z,9.74
2023-02-21T15:20:44.778Z,9.69
2023-02-21T15:23:19.420Z,9.62
2023-02-21T15:25:59.194Z,9.56
2023-02-21T15:28:32.988Z,9.48
2023-02-21T15:31:08.147Z,9.45
2023-02-21T15:33:42.356Z,9.40
2023-02-21T15:36:22.133Z,9.34
2023-02-21T15:39:02.738Z,9.29
2023-02-21T15:41:38.381Z,9.27
2023-02-21T15:44:16.022Z,9.26
2023-02-21T15:46:59.012Z,9.24
2023-02-21T15:49:35.219Z,9.23
2023-02-21T15:52:08.369Z,9.21
2023-02-21T15:54:40.553Z,9.18
2023-02-21T15:57:29.424Z,9.13
2023-02-21T16:00:24.252Z,9.07
2023-02-21T16:03:29.917Z,9.05
2023-02-21T16:06:19.410Z,9.04
2023-02-21T16:09:02.294Z,9.00
2023-02-21T16:11:47.908Z,8.97
2023-02-21T16:14:24.582Z,8.94
2023-02-21T16:17:08.541Z,8.91
2023-02-21T16:19:41.559Z,8.89
2023-02-21T16:22:29.239Z,8.89
2023-02-21T16:25:29.901Z,8.86
2023-02-21T16:28:03.267Z,8.83
2023-02-21T16:30:39.349Z,8.77
2023-02-21T16:33:14.573Z,8.72
2023-02-21T16:35:47.166Z,8.68
2023-02-21T16:38:21.565Z,8.65
2023-02-21T16:40:54.501Z,8.65
2023-02-21T16:43:28.628Z,8.66
2023-02-21T16:46:01.148Z,8.64
2023-02-21T16:48:34.097Z,8.62
2023-02-21T16:51:09.027Z,8.58
2023-02-21T16:53:41.436Z,8.51
2023-02-21T16:56:13.992Z,8.42
2023-02-21T16:58:48.294Z,8.34
2023-02-21T17:01:28.519Z,8.32
2023-02-21T17:04:02.578Z,8.29
2023-02-21T17:06:35.790Z,8.26
2023-02-21T17:09:09.152Z,8.22
2023-02-21T17:11:41.479Z,8.16
2023-02-21T17:14:13.666Z,8.12
2023-02-21T17:16:46.165Z,8.10
2023-02-21T17:19:21.260Z,8.06
2023-02-21T17:21:54.814Z,7.99
2023-02-21T17:24:27.199Z,7.94
2023-02-21T17:27:01.282Z,7.90
2023-02-21T17:29:34.270Z,7.89
2023-02-21T17:32:08.896Z,7.86
2023-02-21T17:34:41.294Z,7.82
2023-02-21T17:37:13.853Z,7.80
2023-02-21T17:39:46.334Z,7.78
2023-02-21T17:42:18.874Z,7.76
2023-02-21T17:44:52.021Z,7.75
2023-02-21T17:47:25.435Z,7.76
2023-02-21T17:50:02.484Z,7.76
2023-02-21T17:52:35.694Z,7.77
2023-02-21T17:55:09.147Z,7.75
2023-02-21T17:57:41.554Z,7.72
2023-02-21T18:00:23.211Z,7.68
2023-02-21T18:02:57.456Z,7.64
2023-02-21T18:05:30.479Z,7.60
2023-02-21T18:08:02.847Z,7.57
2023-02-21T18:10:35.149Z,7.55
2023-02-21T18:13:07.400Z,7.54
2023-02-21T18:15:40.105Z,7.52
2023-02-21T18:18:12.429Z,7.49
2023-02-21T18:20:46.001Z,7.47
2023-02-21T18:23:18.866Z,7.46
2023-02-21T18:25:51.350Z,7.46
2023-02-21T18:28:23.775Z,7.45
2023-02-21T18:30:57.553Z,7.42
2023-02-21T18:33:29.862Z,7.40
2023-02-21T18:36:02.927Z,7.39
2023-02-21T18:38:35.127Z,7.38
2023-02-21T18:41:12.397Z,7.35
2023-02-21T18:43:44.998Z,7.34
2023-02-21T18:46:20.072Z,7.34
2023-02-21T18:48:53.043Z,7.32
2023-02-21T18:51:25.990Z,7.30
2023-02-21T18:53:58.198Z,7.29
2023-02-21T18:56:30.660Z,7.27
2023-02-21T18:59:02.922Z,7.23
2023-02-21T19:01:35.111Z,7.21
2023-02-21T19:04:08.112Z,7.21
2023-02-21T19:06:40.781Z,7.19
2023-02-21T19:09:13.579Z,7.16
2023-02-21T19:11:46.229Z,7.17
2023-02-21T19:14:18.693Z,7.16
2023-02-21T19:16:53.574Z,7.14
2023-02-21T19:19:26.039Z,7.15
2023-02-21T19:21:58.456Z,7.12
2023-02-21T19:24:30.944Z,7.09
2023-02-21T19:27:03.662Z,7.06
2023-02-21T19:29:35.782Z,7.06
2023-02-21T19:32:08.412Z,7.05
2023-02-21T19:34:40.783Z,7.07
2023-02-21T19:37:13.372Z,7.08
2023-02-21T19:39:46.201Z,7.07
2023-02-21T19:42:21.308Z,7.06
2023-02-21T19:44:54.103Z,7.06
2023-02-21T19:47:29.681Z,7.08
2023-02-21T19:50:02.669Z,7.06
2023-02-21T19:52:34.956Z,7.04
2023-02-21T19:55:08.280Z,7.02
2023-02-21T19:57:40.457Z,7.02
2023-02-21T20:00:15.631Z,7.03
2023-02-21T20:02:47.877Z,7.01
2023-02-21T20:05:20.406Z,7.03
2023-02-21T20:07:53.003Z,7.04
2023-02-21T20:10:26.550Z,7.03
2023-02-21T20:13:06.420Z,7.02
2023-02-21T20:15:38.945Z,6.98
2023-02-21T20:18:11.113Z,6.96
2023-02-21T20:20:47.345Z,6.93
2023-02-21T20:23:19.679Z,6.93
2023-02-21T20:25:52.050Z,6.94
2023-02-21T20:28:24.167Z,6.96
2023-02-21T20:30:56.453Z,6.95
2023-02-21T20:33:28.809Z,6.94
2023-02-21T20:36:01.164Z,6.93
2023-02-21T20:38:33.679Z,6.91
2023-02-21T20:41:08.757Z,6.87
2023-02-21T20:43:40.968Z,6.87
2023-02-21T20:46:16.489Z,6.88
2023-02-21T20:48:49.096Z,6.87
2023-02-21T20:51:33.029Z,6.87
2023-02-21T20:54:05.832Z,6.87
2023-02-21T20:56:39.636Z,6.88
2023-02-21T20:59:17.403Z,6.89
2023-02-21T21:01:50.519Z,6.89
2023-02-21T21:04:32.343Z,6.89
2023-02-21T21:07:06.596Z,6.88
2023-02-21T21:09:40.858Z,6.84
2023-02-21T21:12:17.060Z,6.83
2023-02-21T21:14:53.270Z,6.83
2023-02-21T21:17:26.334Z,6.85
2023-02-21T21:19:59.210Z,6.85
2023-02-21T21:22:31.972Z,6.84
2023-02-21T21:25:04.795Z,6.85
2023-02-21T21:27:37.701Z,6.89
2023-02-21T21:30:18.267Z,6.88
2023-02-21T21:32:48.930Z,6.87
2023-02-21T21:35:29.971Z,6.84
2023-02-21T21:38:03.692Z,6.84
2023-02-21T21:40:39.278Z,6.81
2023-02-21T21:43:12.332Z,6.79
2023-02-21T21:45:45.280Z,6.77
2023-02-21T21:48:19.225Z,6.73
2023-02-21T21:50:51.946Z,6.70
2023-02-21T21:53:24.227Z,6.67
2023-02-21T21:56:00.431Z,6.65
2023-02-21T21:58:33.834Z,6.64
2023-02-21T22:01:06.994Z,6.66
2023-02-21T22:03:39.695Z,6.69
2023-02-21T22:06:14.850Z,6.70
2023-02-21T22:08:47.088Z,6.69
2023-02-21T22:11:21.263Z,6.65
2023-02-21T22:13:54.880Z,6.64
2023-02-21T22:16:27.764Z,6.63
2023-02-21T22:19:02.856Z,6.61
2023-02-21T22:21:35.555Z,6.61
2023-02-21T22:24:09.822Z,6.61
2023-02-21T22:26:44.851Z,6.63
2023-02-21T22:29:20.190Z,6.64
2023-02-21T22:31:53.252Z,6.66
2023-02-21T22:34:26.227Z,6.68
2023-02-21T22:37:00.227Z,6.69
2023-02-21T22:39:32.944Z,6.69
2023-02-21T22:42:08.962Z,6.69
2023-02-21T22:44:46.321Z,6.64
2023-02-21T22:47:20.331Z,6.62
2023-02-21T22:50:01.236Z,6.64
2023-02-21T22:52:33.926Z,6.62
2023-02-21T22:55:07.394Z,6.62
2023-02-21T22:57:39.738Z,6.65
2023-02-21T23:00:20.405Z,6.66
2023-02-21T23:02:56.255Z,6.64
2023-02-21T23:05:29.061Z,6.64
2023-02-21T23:08:01.374Z,6.63
2023-02-21T23:10:34.489Z,6.61
2023-02-21T23:13:14.398Z,6.63
2023-02-21T23:15:54.724Z,6.64
2023-02-21T23:18:29.230Z,6.65
2023-02-21T23:21:10.034Z,6.67
2023-02-21T23:23:42.474Z,6.68
2023-02-21T23:26:21.660Z,6.69
2023-02-21T23:28:54.042Z,6.67
2023-02-21T23:31:26.534Z,6.66
2023-02-21T23:33:58.818Z,6.65
2023-02-21T23:36:34.336Z,6.63
2023-02-21T23:39:09.286Z,6.58
2023-02-21T23:41:42.537Z,6.50
2023-02-21T23:44:16.219Z,6.43
2023-02-21T23:46:50.383Z,6.39
2023-02-21T23:49:26.304Z,6.39
2023-02-21T23:52:01.346Z,6.40
2023-02-21T23:54:35.932Z,6.36
2023-02-21T23:57:08.182Z,6.34
2023-02-21T23:59:40.604Z,6.31
